Algo dá errado no pouso e Boeing 737 com 170 a bordo termina com o nariz na grama

Imagem: Reprodução

Um Boeing 737-800 terminou no gramado e com o nariz encostado no solo após algo fugir do previsto durante o procedimento de pouso no aeroporto de Chiang Rai, na Tailândia, na noite do sábado, 30 de julho.

Segundo informações do The Aviation Herald, o avião envolvido no incidente de excursão de pista foi o registrado sob a matrícula HS-DBR, nomeado como Nok Yoknapha, da companhia tailandesa Nok Air. A empresa é conhecida por suas pinturas de diferentes cores, mas todas com seu desenho de pássaro, como visto nas fotos do incidente (Nok, em tailandês grafado como นก, significa pássaro).

Segundo o portal tailandês MGR Online, a Nok Air emitiu um comunicado informando que o voo DD-108, com 164 passageiros e 6 tripulantes, partiu do Aeroporto Don Mueang, em Bangkok, às 20h03 e chegou ao Aeroporto Mae Fah Luang, em Chiang Rai, às 21h06 (14h06Z), porém, enquanto o piloto estava pousando o avião, chovia forte, o que fez o avião sair da pista.

Dados das plataformas de rastreamento online mostram a posição final aproximada do Boeing 737 após pousar pela pista 03 de Chiang Rai, conforme as imagens a seguir.

Imagem: FlightRadar24
Imagem: FlightRadar24

Os relatórios meteorológicos de aeródromo (METARs) dos horários próximos ao do incidente indicavam algumas nuvens de tempestade e ventos com grandes mudanças de direções, embora de baixa intensidade e sem reporte de rajadas ou tesoura de vento:

METAR VTCT

301500Z 16006KT 140V200 8000 -TSRA FEW020CB SCT026 OVC048 23/23 Q1008 BECMG NSW=

301400Z 33006KT 5000 -TSRA FEW018CB SCT018 BKN030 OVC049 25/25 Q1008 TEMPO 2000 TSRA=

Apesar do incidente, a companhia reportou que o piloto conseguiu pousar o avião com segurança e garantir que todos os passageiros e tripulantes terminassem sem ferimentos.

Imagem: Reprodução
Imagem: Reprodução

Conforme relata o portal local Thai PBS, a Nok Air suspendeu todos os voos entre Bangkok e a província de Chiang Rai neste domingo, 31 de julho, já que a previsão de conclusão da remoção do avião e reabertura do aeroporto era para 18h00.

Imagem: Reprodução

A frota da companhia tailandesa é atualmente composta, segundo dados do Planespotters.net, por 17 aviões operacionais, sendo 14 Boeing 737-800 e três De Havilland DHC-8-400.

Murilo Basseto
Murilo Bassetohttp://aeroin.net
Formado em Engenharia Mecânica e com Pós-Graduação em Engenharia de Manutenção Aeronáutica, possui mais de 6 anos de experiência na área controle técnico de manutenção aeronáutica.

Veja outras histórias

Esquadrilha da Fumaça faz turnê no Nordeste na próxima semana com...

0
Entre o final de agosto e o início de setembro, a Esquadrilha da Fumaça tem agendada uma série de apresentações em cinco capitais